Time;durP1;ratioP1;P1;durP2;ratioP2;P2;SDS_P1;SDS_P2;PMS_P1;PMS_P2;Temp;Humidity;BMP_temperature;BMP_pressure;BME280_temperature;BME280_humidity;BME280_pressure;Samples;Min_cycle;Max_cycle;Signal;HPM_P1;HPM_P2
2022/10/01 00:00:56;;;;;;;;;;;;;;;;;;4920079;28;19919;-61
2022/10/01 00:03:23;;;;;;;;;;;;;;;;;;4900675;28;20033;-62
2022/10/01 00:05:49;;;;;;;;;;;;;;;;;;4904040;29;19922;-61
2022/10/01 00:08:15;;;;;;;;;;;;;;;;;;4893184;29;20430;-60
2022/10/01 00:10:40;;;;;;;;;;;;;;;;;;4900484;28;19980;-60
2022/10/01 00:13:08;;;;;;;;;;;;;;;;;;4919434;28;19934;-61
2022/10/01 00:15:36;;;;;;;;;;;;;;;;;;4902348;29;19930;-61
2022/10/01 00:18:02;;;;;;;;;;;;;;;;;;4906037;29;19925;-61
2022/10/01 00:20:27;;;;;;;;;;;;;;;;;;4889651;29;19918;-62
2022/10/01 00:22:52;;;;;;;;;;;;;;;;;;4903442;28;20025;-60
2022/10/01 00:25:21;;;;;;;;;;;;;;;;;;4917900;28;20547;-64
2022/10/01 00:27:48;;;;;;;;;;;;;;;;;;4919619;28;19919;-61
2022/10/01 00:30:18;;;;;;;;;;;;;;;;;;4887805;28;19977;-61
2022/10/01 00:32:46;;;;;;;;;;;;;;;;;;4917884;28;19927;-60
2022/10/01 00:35:12;;;;;;;;;;;;;;;;;;4906348;28;19923;-61
2022/10/01 00:37:41;;;;;;;;;;;;;;;;;;4920144;28;19992;-59
2022/10/01 00:40:09;;;;;;;;;;;;;;;;;;4921065;28;20466;-62
2022/10/01 00:42:39;;;;;;;;;;;;;;;;;;4905644;28;19969;-60
2022/10/01 00:45:09;;;;;;;;;;;;;;;;;;4921116;28;19929;-60
2022/10/01 00:47:38;;;;;;;;;;;;;;;;;;4902309;28;19931;-60
2022/10/01 00:50:06;;;;;;;;;;;;;;;;;;4898822;28;19982;-60
2022/10/01 00:52:31;;;;;;;;;;;;;;;;;;4919179;28;19932;-60
2022/10/01 00:54:59;;;;;;;;;;;;;;;;;;4905188;29;19969;-59
2022/10/01 00:57:24;;;;;;;;;;;;;;;;;;4902578;28;20470;-59
2022/10/01 00:59:50;;;;;;;;;;;;;;;;;;4908740;29;19922;-58
2022/10/01 01:02:18;;;;;;;;;;;;;;;;;;4904734;28;20041;-60
2022/10/01 01:04:43;;;;;;;;;;;;;;;;;;4904073;28;19973;-59
2022/10/01 01:07:08;;;;;;;;;;;;;;;;;;4900287;28;19923;-60
2022/10/01 01:09:34;;;;;;;;;;;;;;;;;;4917989;28;20484;-59
2022/10/01 01:12:02;;;;;;;;;;;;;;;;;;4899925;29;20018;-60
2022/10/01 01:14:29;;;;;;;;;;;;;;;;;;4919405;28;19926;-61
2022/10/01 01:16:57;;;;;;;;;;;;;;;;;;4919443;28;19923;-61
2022/10/01 01:19:23;;;;;;;;;;;;;;;;;;4923015;28;19926;-58
2022/10/01 01:21:50;;;;;;;;;;;;;;;;;;4917394;28;19941;-59
2022/10/01 01:24:20;;;;;;;;;;;;;;;;;;4898232;28;19930;-59
2022/10/01 01:26:48;;;;;;;;;;;;;;;;;;4922219;28;19930;-60
2022/10/01 01:29:17;;;;;;;;;;;;;;;;;;4906366;28;19934;-60
2022/10/01 01:31:45;;;;;;;;;;;;;;;;;;4894521;29;21784;-60
2022/10/01 01:34:13;;;;;;;;;;;;;;;;;;4921848;28;20925;-59
2022/10/01 01:36:41;;;;;;;;;;;;;;;;;;4923363;28;19966;-59
2022/10/01 01:39:08;;;;;;;;;;;;;;;;;;4908593;29;20334;-60
2022/10/01 01:41:34;;;;;;;;;;;;;;;;;;4901708;28;19923;-60
2022/10/01 01:43:59;;;;;;;;;;;;;;;;;;4922798;28;20290;-59
2022/10/01 01:46:30;;;;;;;;;;;;;;;;;;4910014;28;20845;-59
2022/10/01 01:48:57;;;;;;;;;;;;;;;;;;4922856;28;20529;-59
2022/10/01 01:51:25;;;;;;;;;;;;;;;;;;4919013;28;20041;-59
2022/10/01 01:53:51;;;;;;;;;;;;;;;;;;4921698;28;19961;-60
2022/10/01 01:56:19;;;;;;;;;;;;;;;;;;4911816;28;19931;-59
2022/10/01 01:58:44;;;;;;;;;;;;;;;;;;4889387;29;19923;-61
2022/10/01 02:01:12;;;;;;;;;;;;;;;;;;4889826;29;19929;-60
2022/10/01 02:03:40;;;;;;;;;;;;;;;;;;4883067;29;19923;-61
2022/10/01 02:06:05;;;;;;;;;;;;;;;;;;4887629;29;19978;-60
2022/10/01 02:08:31;;;;;;;;;;;;;;;;;;4902100;29;20001;-60
2022/10/01 02:10:57;;;;;;;;;;;;;;;;;;4868701;29;19927;-58
2022/10/01 02:13:25;;;;;;;;;;;;;;;;;;4903105;29;19922;-59
2022/10/01 02:15:50;;;;;;;;;;;;;;;;;;4884933;29;19938;-60
2022/10/01 02:18:19;;;;;;;;;;;;;;;;;;4891439;29;19919;-61
2022/10/01 02:20:44;;;;;;;;;;;;;;;;;;4867841;29;19923;-61
2022/10/01 02:23:09;;;;;;;;;;;;;;;;;;4902502;29;19922;-59
2022/10/01 02:25:35;;;;;;;;;;;;;;;;;;4900717;29;19923;-60
2022/10/01 02:28:02;;;;;;;;;;;;;;;;;;4884320;29;21566;-59
2022/10/01 02:30:30;;;;;;;;;;;;;;;;;;4902906;29;20515;-61
2022/10/01 02:32:58;;;;;;;;;;;;;;;;;;4903445;29;19943;-62
2022/10/01 02:35:23;;;;;;;;;;;;;;;;;;4885066;29;20143;-60
2022/10/01 02:37:48;;;;;;;;;;;;;;;;;;4903345;29;20810;-60
2022/10/01 02:40:14;;;;;;;;;;;;;;;;;;4899095;29;21864;-60
2022/10/01 02:42:40;;;;;;;;;;;;;;;;;;4901831;29;19927;-60
2022/10/01 02:45:06;;;;;;;;;;;;;;;;;;4881474;29;19929;-60
2022/10/01 02:47:32;;;;;;;;;;;;;;;;;;4901164;29;19926;-58
2022/10/01 02:49:58;;;;;;;;;;;;;;;;;;4883569;29;19955;-59
2022/10/01 02:52:23;;;;;;;;;;;;;;;;;;4903912;29;20626;-61
2022/10/01 02:54:49;;;;;;;;;;;;;;;;;;4901381;29;19923;-60
2022/10/01 02:57:22;;;;;;;;;;;;;;;;;;4916139;28;20287;-59
2022/10/01 02:59:48;;;;;;;;;;;;;;;;;;4902162;28;19919;-60
2022/10/01 03:02:15;;;;;;;;;;;;;;;;;;4905935;29;19938;-61
2022/10/01 03:04:40;;;;;;;;;;;;;;;;;;4917279;28;19923;-61
2022/10/01 03:07:06;;;;;;;;;;;;;;;;;;4906372;29;20005;-62
2022/10/01 03:09:31;;;;;;;;;;;;;;;;;;4900117;29;19919;-62
2022/10/01 03:11:59;;;;;;;;;;;;;;;;;;4916192;28;19927;-62
2022/10/01 03:14:24;;;;;;;;;;;;;;;;;;4902329;29;20702;-60
2022/10/01 03:16:54;;;;;;;;;;;;;;;;;;4917672;28;19922;-61
2022/10/01 03:19:21;;;;;;;;;;;;;;;;;;4904765;28;19919;-60
2022/10/01 03:21:47;;;;;;;;;;;;;;;;;;4890016;29;19929;-62
2022/10/01 03:24:12;;;;;;;;;;;;;;;;;;4901933;28;19927;-61
2022/10/01 03:26:40;;;;;;;;;;;;;;;;;;4898995;28;20575;-60
2022/10/01 03:29:08;;;;;;;;;;;;;;;;;;4919494;28;19950;-60
2022/10/01 03:31:33;;;;;;;;;;;;;;;;;;4908604;28;20001;-59
2022/10/01 03:34:01;;;;;;;;;;;;;;;;;;4898290;28;19926;-61
2022/10/01 03:36:30;;;;;;;;;;;;;;;;;;4916945;28;19923;-61
2022/10/01 03:38:55;;;;;;;;;;;;;;;;;;4904670;28;19998;-59
2022/10/01 03:41:22;;;;;;;;;;;;;;;;;;4918821;28;20815;-59
2022/10/01 03:43:48;;;;;;;;;;;;;;;;;;4908324;29;20003;-60
2022/10/01 03:46:16;;;;;;;;;;;;;;;;;;4902997;28;19958;-61
2022/10/01 03:48:42;;;;;;;;;;;;;;;;;;4918100;28;20279;-60
2022/10/01 03:51:09;;;;;;;;;;;;;;;;;;4917090;28;20011;-60
2022/10/01 03:53:37;;;;;;;;;;;;;;;;;;4889638;28;20044;-58
2022/10/01 03:56:03;;;;;;;;;;;;;;;;;;4916840;28;19934;-60
2022/10/01 03:58:28;;;;;;;;;;;;;;;;;;4908514;28;19975;-63
2022/10/01 04:00:56;;;;;;;;;;;;;;;;;;4918097;28;19922;-60
2022/10/01 04:03:29;;;;;;;;;;;;;;;;;;4917333;28;21759;-61
2022/10/01 04:05:54;;;;;;;;;;;;;;;;;;4915971;28;19974;-60
2022/10/01 04:08:20;;;;;;;;;;;;;;;;;;4918968;28;19985;-58
2022/10/01 04:10:45;;;;;;;;;;;;;;;;;;4901523;28;20009;-59
2022/10/01 04:13:13;;;;;;;;;;;;;;;;;;4898227;28;19938;-60
2022/10/01 04:15:40;;;;;;;;;;;;;;;;;;4915636;28;19926;-60
2022/10/01 04:18:11;;;;;;;;;;;;;;;;;;4900677;29;19922;-60
2022/10/01 04:20:36;;;;;;;;;;;;;;;;;;4904016;29;19930;-60
2022/10/01 04:23:07;;;;;;;;;;;;;;;;;;4905455;28;20025;-60
2022/10/01 04:25:35;;;;;;;;;;;;;;;;;;4917336;28;20092;-59
2022/10/01 04:28:00;;;;;;;;;;;;;;;;;;4904937;28;19973;-60
2022/10/01 04:30:25;;;;;;;;;;;;;;;;;;4905883;28;20009;-58
2022/10/01 04:32:51;;;;;;;;;;;;;;;;;;4918860;28;20045;-58
2022/10/01 04:35:17;;;;;;;;;;;;;;;;;;4903622;29;19926;-59
2022/10/01 04:37:42;;;;;;;;;;;;;;;;;;4919619;28;19974;-60
2022/10/01 04:40:09;;;;;;;;;;;;;;;;;;4898583;29;20144;-59
2022/10/01 04:42:34;;;;;;;;;;;;;;;;;;4918512;28;19973;-60
2022/10/01 04:45:00;;;;;;;;;;;;;;;;;;4909312;29;20025;-60
2022/10/01 04:47:28;;;;;;;;;;;;;;;;;;4921873;28;20523;-60
2022/10/01 04:49:58;;;;;;;;;;;;;;;;;;4907552;28;19922;-60
2022/10/01 04:52:23;;;;;;;;;;;;;;;;;;4923202;28;19922;-60
2022/10/01 04:54:51;;;;;;;;;;;;;;;;;;4917221;28;19985;-59
2022/10/01 04:57:17;;;;;;;;;;;;;;;;;;4920133;28;19944;-59
2022/10/01 04:59:42;;;;;;;;;;;;;;;;;;4902800;28;22139;-59
2022/10/01 05:02:09;;;;;;;;;;;;;;;;;;4907294;29;20474;-60
2022/10/01 05:04:38;;;;;;;;;;;;;;;;;;4905448;28;20042;-60
2022/10/01 05:07:03;;;;;;;;;;;;;;;;;;4914096;29;19918;-60
2022/10/01 05:09:29;;;;;;;;;;;;;;;;;;4923870;28;19973;-61
2022/10/01 05:11:56;;;;;;;;;;;;;;;;;;4922003;28;19967;-61
2022/10/01 05:14:22;;;;;;;;;;;;;;;;;;4893701;29;19938;-60
2022/10/01 05:16:49;;;;;;;;;;;;;;;;;;4910183;29;20618;-61
2022/10/01 05:19:17;;;;;;;;;;;;;;;;;;4922482;28;19922;-60
2022/10/01 05:21:45;;;;;;;;;;;;;;;;;;4904937;29;20005;-59
2022/10/01 05:24:10;;;;;;;;;;;;;;;;;;4923988;28;19936;-60
2022/10/01 05:26:38;;;;;;;;;;;;;;;;;;4923364;28;19935;-62
2022/10/01 05:29:03;;;;;;;;;;;;;;;;;;4912424;29;19922;-61
2022/10/01 05:31:29;;;;;;;;;;;;;;;;;;4885331;28;19944;-61
2022/10/01 05:33:56;;;;;;;;;;;;;;;;;;4906380;28;19933;-61
2022/10/01 05:36:24;;;;;;;;;;;;;;;;;;4892130;28;20669;-61
2022/10/01 05:38:52;;;;;;;;;;;;;;;;;;4911388;28;20009;-60
2022/10/01 05:41:17;;;;;;;;;;;;;;;;;;4900065;29;19927;-61
2022/10/01 05:43:42;;;;;;;;;;;;;;;;;;4905696;28;19923;-61
2022/10/01 05:46:10;;;;;;;;;;;;;;;;;;4899632;28;19923;-62
2022/10/01 05:48:37;;;;;;;;;;;;;;;;;;4918518;28;19933;-61
2022/10/01 05:51:07;;;;;;;;;;;;;;;;;;4917322;28;20339;-61
2022/10/01 05:53:33;;;;;;;;;;;;;;;;;;4918347;28;19979;-61
2022/10/01 05:56:01;;;;;;;;;;;;;;;;;;4920200;28;20528;-61
2022/10/01 05:58:31;;;;;;;;;;;;;;;;;;4920338;28;20484;-61
2022/10/01 06:00:57;;;;;;;;;;;;;;;;;;4903500;29;19945;-62
2022/10/01 06:03:23;;;;;;;;;;;;;;;;;;4906453;29;20367;-60
2022/10/01 06:05:48;;;;;;;;;;;;;;;;;;4922350;28;19929;-61
2022/10/01 06:08:15;;;;;;;;;;;;;;;;;;4906482;29;19923;-62
2022/10/01 06:10:41;;;;;;;;;;;;;;;;;;4894222;28;19919;-61
2022/10/01 06:13:09;;;;;;;;;;;;;;;;;;4896708;29;20545;-60
2022/10/01 06:15:36;;;;;;;;;;;;;;;;;;4917935;28;20402;-61
2022/10/01 06:18:01;;;;;;;;;;;;;;;;;;4922534;28;19954;-59
2022/10/01 06:20:27;;;;;;;;;;;;;;;;;;4893442;28;21214;-58
2022/10/01 06:22:54;;;;;;;;;;;;;;;;;;4921441;28;19930;-60
2022/10/01 06:25:20;;;;;;;;;;;;;;;;;;4907938;29;19926;-60
2022/10/01 06:27:45;;;;;;;;;;;;;;;;;;4896579;28;19948;-60
2022/10/01 06:30:10;;;;;;;;;;;;;;;;;;4922918;28;19919;-60
2022/10/01 06:32:37;;;;;;;;;;;;;;;;;;4919551;28;20446;-61
2022/10/01 06:35:06;;;;;;;;;;;;;;;;;;4891221;28;20352;-61
2022/10/01 06:37:31;;;;;;;;;;;;;;;;;;4906660;28;19926;-61
2022/10/01 06:39:59;;;;;;;;;;;;;;;;;;4916344;28;19953;-61
2022/10/01 06:42:27;;;;;;;;;;;;;;;;;;4914818;28;19922;-62
2022/10/01 06:44:54;;;;;;;;;;;;;;;;;;4915794;28;19922;-61
2022/10/01 06:53:09;;;;;;;;;;;;;;;;;;4917159;28;19925;-60
2022/10/01 06:55:35;;;;;;;;;;;;;;;;;;4916455;28;20025;-62
2022/10/01 06:58:08;;;;;;;;;;;;;;;;;;4901974;28;20709;-61
2022/10/01 07:00:33;;;;;;;;;;;;;;;;;;4916325;28;19923;-62
2022/10/01 07:02:59;;;;;;;;;;;;;;;;;;4916405;28;19978;-63
2022/10/01 07:05:24;;;;;;;;;;;;;;;;;;4887753;28;20048;-61
2022/10/01 07:07:50;;;;;;;;;;;;;;;;;;4903925;28;19966;-61
2022/10/01 07:10:19;;;;;;;;;;;;;;;;;;4900223;29;19958;-61
2022/10/01 07:12:49;;;;;;;;;;;;;;;;;;4914590;28;19934;-61
2022/10/01 07:15:17;;;;;;;;;;;;;;;;;;4888710;29;20722;-62
2022/10/01 07:17:43;;;;;;;;;;;;;;;;;;4916059;28;19919;-61
2022/10/01 07:20:11;;;;;;;;;;;;;;;;;;4916663;28;19922;-61
2022/10/01 07:22:37;;;;;;;;;;;;;;;;;;4896545;28;19929;-61
2022/10/01 07:28:06;;;;;;;;;;;;;;;;;;4919597;28;19934;-61
2022/10/01 07:30:37;;;;;;;;;;;;;;;;;;4921805;28;20972;-62
2022/10/01 07:33:03;;;;;;;;;;;;;;;;;;4920117;28;19926;-61
2022/10/01 07:35:28;;;;;;;;;;;;;;;;;;4903988;28;19941;-62
2022/10/01 07:37:58;;;;;;;;;;;;;;;;;;4901030;29;19994;-62
2022/10/01 07:40:26;;;;;;;;;;;;;;;;;;4918510;28;19922;-62
2022/10/01 07:42:53;;;;;;;;;;;;;;;;;;4920977;28;19930;-62
2022/10/01 07:45:20;;;;;;;;;;;;;;;;;;4899935;28;19926;-62
2022/10/01 07:47:48;;;;;;;;;;;;;;;;;;4918133;28;19934;-62
2022/10/01 07:50:14;;;;;;;;;;;;;;;;;;4902981;28;19973;-62
2022/10/01 07:52:40;;;;;;;;;;;;;;;;;;4918800;28;19923;-62
2022/10/01 07:55:05;;;;;;;;;;;;;;;;;;4920423;28;20623;-63
2022/10/01 07:57:32;;;;;;;;;;;;;;;;;;4919425;28;19974;-62
2022/10/01 08:02:50;;;;;;;;;;;;;;;;;;4896784;28;19931;-61
2022/10/01 08:05:20;;;;;;;;;;;;;;;;;;4912610;28;20363;-63
2022/10/01 08:07:45;;;;;;;;;;;;;;;;;;4889487;28;19966;-63
2022/10/01 08:10:16;;;;;;;;;;;;;;;;;;4902214;29;19926;-65
2022/10/01 08:12:43;;;;;;;;;;;;;;;;;;4920458;28;19919;-64
2022/10/01 08:15:09;;;;;;;;;;;;;;;;;;4907369;28;20033;-63
2022/10/01 08:17:39;;;;;;;;;;;;;;;;;;4898950;29;19919;-65
2022/10/01 08:20:05;;;;;;;;;;;;;;;;;;4917401;28;19927;-65
2022/10/01 08:22:31;;;;;;;;;;;;;;;;;;4920293;28;22172;-63
2022/10/01 08:24:56;;;;;;;;;;;;;;;;;;4911348;29;20038;-64
2022/10/01 08:27:24;;;;;;;;;;;;;;;;;;4907541;28;19919;-64
2022/10/01 08:29:52;;;;;;;;;;;;;;;;;;4908684;28;19933;-66
2022/10/01 08:32:17;;;;;;;;;;;;;;;;;;4901911;29;19945;-64
2022/10/01 08:34:46;;;;;;;;;;;;;;;;;;4921006;28;20074;-64
2022/10/01 08:37:13;;;;;;;;;;;;;;;;;;4889962;29;19919;-64
2022/10/01 08:39:40;;;;;;;;;;;;;;;;;;4923710;28;19933;-63
2022/10/01 08:42:11;;;;;;;;;;;;;;;;;;4922170;28;19919;-65
2022/10/01 08:44:42;;;;;;;;;;;;;;;;;;4912080;28;19926;-62
2022/10/01 08:47:23;;;;;;;;;;;;;;;;;;4911175;28;20017;-63
2022/10/01 08:49:49;;;;;;;;;;;;;;;;;;4923143;28;19918;-64
2022/10/01 08:52:17;;;;;;;;;;;;;;;;;;4922680;28;19922;-63
2022/10/01 08:54:42;;;;;;;;;;;;;;;;;;4899428;28;19941;-64
2022/10/01 08:57:08;;;;;;;;;;;;;;;;;;4912122;28;20013;-64
2022/10/01 08:59:33;;;;;;;;;;;;;;;;;;4907754;29;20405;-63
2022/10/01 09:02:01;;;;;;;;;;;;;;;;;;4913122;29;19923;-60
2022/10/01 09:04:29;;;;;;;;;;;;;;;;;;4902283;28;19958;-64
2022/10/01 09:06:54;;;;;;;;;;;;;;;;;;4918938;28;19965;-61
2022/10/01 09:09:19;;;;;;;;;;;;;;;;;;4911074;28;19927;-62
2022/10/01 09:11:44;;;;;;;;;;;;;;;;;;4899415;29;19927;-61
2022/10/01 09:14:10;;;;;;;;;;;;;;;;;;4921713;28;19918;-61
2022/10/01 09:16:35;;;;;;;;;;;;;;;;;;4908673;28;19923;-60
2022/10/01 09:19:03;;;;;;;;;;;;;;;;;;4901582;29;19926;-61
2022/10/01 09:21:28;;;;;;;;;;;;;;;;;;4921829;28;20378;-62
2022/10/01 09:26:41;;;;;;;;;;;;;;;;;;4919057;28;19949;-62
2022/10/01 09:29:06;;;;;;;;;;;;;;;;;;4921600;28;20334;-62
2022/10/01 09:31:32;;;;;;;;;;;;;;;;;;4921893;28;19919;-64
2022/10/01 09:33:57;;;;;;;;;;;;;;;;;;4919483;28;20033;-62
2022/10/01 09:36:23;;;;;;;;;;;;;;;;;;4910119;29;19918;-63
2022/10/01 09:38:53;;;;;;;;;;;;;;;;;;4909341;28;19958;-62
2022/10/01 09:41:19;;;;;;;;;;;;;;;;;;4906561;28;20001;-62
2022/10/01 09:43:47;;;;;;;;;;;;;;;;;;4919682;28;19926;-65
2022/10/01 09:46:15;;;;;;;;;;;;;;;;;;4902024;28;19927;-61
2022/10/01 09:48:41;;;;;;;;;;;;;;;;;;4901510;29;19951;-63
2022/10/01 09:51:06;;;;;;;;;;;;;;;;;;4920231;28;19923;-66
2022/10/01 09:53:32;;;;;;;;;;;;;;;;;;4919525;28;19925;-60
2022/10/01 09:55:58;;;;;;;;;;;;;;;;;;4920318;28;19922;-63
2022/10/01 09:58:23;;;;;;;;;;;;;;;;;;4905269;28;19926;-63
2022/10/01 10:00:52;;;;;;;;;;;;;;;;;;4912143;29;19922;-63
2022/10/01 10:03:18;;;;;;;;;;;;;;;;;;4903877;28;19986;-63
2022/10/01 10:05:48;;;;;;;;;;;;;;;;;;4903871;29;19936;-62
2022/10/01 10:08:13;;;;;;;;;;;;;;;;;;4923175;28;19933;-61
2022/10/01 10:10:39;;;;;;;;;;;;;;;;;;4892470;28;20479;-64
2022/10/01 10:13:04;;;;;;;;;;;;;;;;;;4896881;29;19942;-63
2022/10/01 10:15:31;;;;;;;;;;;;;;;;;;4903810;29;20326;-62
2022/10/01 10:17:56;;;;;;;;;;;;;;;;;;4922283;28;20026;-61
2022/10/01 10:20:22;;;;;;;;;;;;;;;;;;4901596;29;20014;-61
2022/10/01 10:26:06;;;;;;;;;;;;;;;;;;4923055;28;19925;-60
2022/10/01 10:28:32;;;;;;;;;;;;;;;;;;4922801;28;22031;-61
2022/10/01 10:33:43;;;;;;;;;;;;;;;;;;4922318;28;20009;-60
2022/10/01 10:36:11;;;;;;;;;;;;;;;;;;4903480;28;19926;-60
2022/10/01 10:38:39;;;;;;;;;;;;;;;;;;4901286;28;20653;-59
2022/10/01 10:41:07;;;;;;;;;;;;;;;;;;4921698;28;20320;-60
2022/10/01 10:43:33;;;;;;;;;;;;;;;;;;4901317;29;19934;-62
2022/10/01 10:45:58;;;;;;;;;;;;;;;;;;4919368;28;19922;-60
2022/10/01 10:51:42;;;;;;;;;;;;;;;;;;4921566;28;20523;-59
2022/10/01 10:57:27;;;;;;;;;;;;;;;;;;4911432;28;19933;-60
2022/10/01 10:59:55;;;;;;;;;;;;;;;;;;4885592;29;19919;-61
2022/10/01 11:05:36;;;;;;;;;;;;;;;;;;4904336;29;19940;-61
2022/10/01 11:08:01;;;;;;;;;;;;;;;;;;4876893;29;19962;-60
2022/10/01 11:10:29;;;;;;;;;;;;;;;;;;4901349;29;19958;-58
2022/10/01 11:12:55;;;;;;;;;;;;;;;;;;4903072;29;20951;-60
2022/10/01 11:15:35;;;;;;;;;;;;;;;;;;4888657;29;19923;-59
2022/10/01 11:21:17;;;;;;;;;;;;;;;;;;4900636;29;20001;-60
2022/10/01 11:23:44;;;;;;;;;;;;;;;;;;4901623;29;20218;-62
2022/10/01 11:26:10;;;;;;;;;;;;;;;;;;4901683;29;19923;-61
2022/10/01 11:31:57;;;;;;;;;;;;;;;;;;4902223;29;19929;-61
2022/10/01 11:37:41;;;;;;;;;;;;;;;;;;4901228;29;20041;-62
2022/10/01 11:40:09;;;;;;;;;;;;;;;;;;4900501;29;19966;-61
2022/10/01 11:42:34;;;;;;;;;;;;;;;;;;4884464;29;19927;-61
2022/10/01 11:45:02;;;;;;;;;;;;;;;;;;4891062;29;19927;-61
2022/10/01 11:50:15;;;;;;;;;;;;;;;;;;4886567;29;19923;-61
2022/10/01 12:01:39;;;;;;;;;;;;;;;;;;4899913;29;20025;-60
2022/10/01 12:04:05;;;;;;;;;;;;;;;;;;4882238;29;20005;-62
2022/10/01 12:09:49;;;;;;;;;;;;;;;;;;4899167;29;20167;-59
2022/10/01 12:15:51;;;;;;;;;;;;;;;;;;4898391;29;19930;-62
2022/10/01 12:18:17;;;;;;;;;;;;;;;;;;4899261;29;19922;-61
2022/10/01 12:20:57;;;;;;;;;;;;;;;;;;4899266;29;20390;-63
2022/10/01 12:23:23;;;;;;;;;;;;;;;;;;4901159;29;19922;-63
2022/10/01 12:25:50;;;;;;;;;;;;;;;;;;4897867;29;19978;-63
2022/10/01 12:28:18;;;;;;;;;;;;;;;;;;4890967;29;21850;-63
2022/10/01 12:30:44;;;;;;;;;;;;;;;;;;4898968;29;19929;-65
2022/10/01 12:33:10;;;;;;;;;;;;;;;;;;4870050;29;19943;-65
2022/10/01 12:35:35;;;;;;;;;;;;;;;;;;4880525;29;19926;-64
2022/10/01 12:38:16;;;;;;;;;;;;;;;;;;4899685;29;19923;-63
2022/10/01 12:40:41;;;;;;;;;;;;;;;;;;4885844;29;19919;-65
2022/10/01 12:43:07;;;;;;;;;;;;;;;;;;4879329;29;20587;-65
2022/10/01 12:45:33;;;;;;;;;;;;;;;;;;4885691;29;19996;-66
2022/10/01 12:48:00;;;;;;;;;;;;;;;;;;4898646;29;19919;-64
2022/10/01 12:53:48;;;;;;;;;;;;;;;;;;4897699;29;19942;-63
2022/10/01 12:56:14;;;;;;;;;;;;;;;;;;4868080;29;19943;-62
2022/10/01 12:58:39;;;;;;;;;;;;;;;;;;4885238;29;19927;-62
2022/10/01 13:01:05;;;;;;;;;;;;;;;;;;4898932;29;20850;-62
2022/10/01 13:03:35;;;;;;;;;;;;;;;;;;4871525;29;20846;-62
2022/10/01 13:06:03;;;;;;;;;;;;;;;;;;4882601;29;19923;-63
2022/10/01 13:08:29;;;;;;;;;;;;;;;;;;4882230;29;19934;-64
2022/10/01 13:10:58;;;;;;;;;;;;;;;;;;4894102;29;19977;-62
2022/10/01 13:13:26;;;;;;;;;;;;;;;;;;4903011;29;20426;-62
2022/10/01 13:15:54;;;;;;;;;;;;;;;;;;4872897;29;19919;-62
2022/10/01 13:18:26;;;;;;;;;;;;;;;;;;4904164;29;19978;-64
2022/10/01 13:24:10;;;;;;;;;;;;;;;;;;4903050;29;19933;-64
2022/10/01 13:29:20;;;;;;;;;;;;;;;;;;4886303;29;19930;-66
2022/10/01 13:41:37;;;;;;;;;;;;;;;;;;4904108;29;20040;-64
2022/10/01 13:44:06;;;;;;;;;;;;;;;;;;4884211;29;20092;-64
2022/10/01 13:46:34;;;;;;;;;;;;;;;;;;4890395;29;19961;-62
2022/10/01 13:52:16;;;;;;;;;;;;;;;;;;4904368;29;20847;-63
2022/10/01 13:54:45;;;;;;;;;;;;;;;;;;4884895;29;19919;-62
2022/10/01 13:57:10;;;;;;;;;;;;;;;;;;4899143;28;20453;-63
2022/10/01 13:59:38;;;;;;;;;;;;;;;;;;4921609;28;19969;-63
2022/10/01 14:02:03;;;;;;;;;;;;;;;;;;4908087;28;20383;-62
2022/10/01 14:04:30;;;;;;;;;;;;;;;;;;4903723;29;19930;-62
2022/10/01 14:06:57;;;;;;;;;;;;;;;;;;4918717;28;19923;-62
2022/10/01 14:09:23;;;;;;;;;;;;;;;;;;4911507;28;21928;-62
2022/10/01 14:17:18;;;;;;;;;;;;;;;;;;4920830;28;19923;-62
2022/10/01 14:19:48;;;;;;;;;;;;;;;;;;4912720;28;19918;-62
2022/10/01 14:22:16;;;;;;;;;;;;;;;;;;4911805;29;19962;-68
2022/10/01 14:24:42;;;;;;;;;;;;;;;;;;4922085;28;19922;-65
2022/10/01 14:27:07;;;;;;;;;;;;;;;;;;4896451;29;19973;-63
2022/10/01 14:29:35;;;;;;;;;;;;;;;;;;4903731;29;20017;-62
2022/10/01 14:35:18;;;;;;;;;;;;;;;;;;4920870;28;19998;-62
2022/10/01 14:38:01;;;;;;;;;;;;;;;;;;4921845;28;19982;-61
2022/10/01 14:40:29;;;;;;;;;;;;;;;;;;4917906;28;19923;-59
2022/10/01 14:42:57;;;;;;;;;;;;;;;;;;4919297;28;19930;-61
2022/10/01 14:45:24;;;;;;;;;;;;;;;;;;4919832;28;20496;-61
2022/10/01 14:47:57;;;;;;;;;;;;;;;;;;4912099;28;19945;-63
2022/10/01 14:53:38;;;;;;;;;;;;;;;;;;4918100;28;19950;-62
2022/10/01 14:56:03;;;;;;;;;;;;;;;;;;4912308;29;20829;-62
2022/10/01 14:58:44;;;;;;;;;;;;;;;;;;4919543;28;20025;-62
2022/10/01 15:01:12;;;;;;;;;;;;;;;;;;4904413;29;19933;-61
2022/10/01 15:06:54;;;;;;;;;;;;;;;;;;4917579;28;20491;-63
2022/10/01 15:09:19;;;;;;;;;;;;;;;;;;4899680;29;19923;-61
2022/10/01 15:11:45;;;;;;;;;;;;;;;;;;4915950;28;20382;-61
2022/10/01 15:14:12;;;;;;;;;;;;;;;;;;4917660;28;19942;-62
2022/10/01 15:16:37;;;;;;;;;;;;;;;;;;4891900;29;19919;-60
2022/10/01 15:19:05;;;;;;;;;;;;;;;;;;4915066;28;20703;-61
2022/10/01 15:24:32;;;;;;;;;;;;;;;;;;4918505;28;19995;-61
2022/10/01 15:30:14;;;;;;;;;;;;;;;;;;4917302;28;20013;-62
2022/10/01 15:32:40;;;;;;;;;;;;;;;;;;4914702;28;19922;-61
2022/10/01 15:35:06;;;;;;;;;;;;;;;;;;4908557;28;21071;-60
2022/10/01 15:37:31;;;;;;;;;;;;;;;;;;4917105;28;19922;-60
2022/10/01 15:39:56;;;;;;;;;;;;;;;;;;4901281;28;19933;-61
2022/10/01 15:42:22;;;;;;;;;;;;;;;;;;4901585;28;19930;-63
2022/10/01 15:44:52;;;;;;;;;;;;;;;;;;4898845;28;19974;-61
2022/10/01 15:47:17;;;;;;;;;;;;;;;;;;4917210;28;20370;-61
2022/10/01 15:49:43;;;;;;;;;;;;;;;;;;4917546;28;19925;-62
2022/10/01 15:54:53;;;;;;;;;;;;;;;;;;4913545;28;20347;-61
2022/10/01 15:57:19;;;;;;;;;;;;;;;;;;4902516;29;19990;-62
2022/10/01 15:59:44;;;;;;;;;;;;;;;;;;4897935;29;19927;-63
2022/10/01 16:08:42;;;;;;;;;;;;;;;;;;4920094;28;20044;-62
2022/10/01 16:11:08;;;;;;;;;;;;;;;;;;4916731;28;19969;-61
2022/10/01 16:13:37;;;;;;;;;;;;;;;;;;4916141;28;19930;-62
2022/10/01 16:16:05;;;;;;;;;;;;;;;;;;4917668;28;20075;-61
2022/10/01 16:18:33;;;;;;;;;;;;;;;;;;4891522;29;20135;-61
2022/10/01 16:20:58;;;;;;;;;;;;;;;;;;4903175;29;20545;-62
2022/10/01 16:26:40;;;;;;;;;;;;;;;;;;4919521;28;20176;-62
2022/10/01 16:32:22;;;;;;;;;;;;;;;;;;4917841;28;19929;-61
2022/10/01 16:34:48;;;;;;;;;;;;;;;;;;4913288;28;19958;-63
2022/10/01 16:40:07;;;;;;;;;;;;;;;;;;4919213;28;20009;-63
2022/10/01 16:42:35;;;;;;;;;;;;;;;;;;4919994;28;19925;-62
2022/10/01 16:45:01;;;;;;;;;;;;;;;;;;4921849;28;20896;-64
2022/10/01 16:47:28;;;;;;;;;;;;;;;;;;4922252;28;19966;-60
2022/10/01 16:49:56;;;;;;;;;;;;;;;;;;4900468;28;21087;-62
2022/10/01 16:52:21;;;;;;;;;;;;;;;;;;4904285;29;19934;-61
2022/10/01 16:55:00;;;;;;;;;;;;;;;;;;4919476;28;19973;-63
2022/10/01 16:57:26;;;;;;;;;;;;;;;;;;4899008;29;19934;-61
2022/10/01 16:59:51;;;;;;;;;;;;;;;;;;4920549;28;20009;-61
2022/10/01 17:02:17;;;;;;;;;;;;;;;;;;4917266;28;19923;-63
2022/10/01 17:04:42;;;;;;;;;;;;;;;;;;4904445;28;19973;-63
2022/10/01 17:07:09;;;;;;;;;;;;;;;;;;4920342;28;19918;-63
2022/10/01 17:09:37;;;;;;;;;;;;;;;;;;4907211;29;20067;-61
2022/10/01 17:12:02;;;;;;;;;;;;;;;;;;4919605;28;20614;-61
2022/10/01 17:14:27;;;;;;;;;;;;;;;;;;4892437;28;19934;-63
2022/10/01 17:16:55;;;;;;;;;;;;;;;;;;4917476;28;19923;-62
2022/10/01 17:22:11;;;;;;;;;;;;;;;;;;4918134;28;19985;-65
2022/10/01 17:24:47;;;;;;;;;;;;;;;;;;4897220;28;19954;-65
2022/10/01 17:27:12;;;;;;;;;;;;;;;;;;4909528;29;19927;-64
2022/10/01 17:29:37;;;;;;;;;;;;;;;;;;4887500;28;19918;-65
2022/10/01 17:32:05;;;;;;;;;;;;;;;;;;4885646;29;19945;-64
2022/10/01 17:34:34;;;;;;;;;;;;;;;;;;4919914;28;20057;-64
2022/10/01 17:37:00;;;;;;;;;;;;;;;;;;4904480;28;19923;-64
2022/10/01 17:39:25;;;;;;;;;;;;;;;;;;4919088;28;19935;-61
2022/10/01 17:41:53;;;;;;;;;;;;;;;;;;4902333;28;19977;-62
2022/10/01 17:44:24;;;;;;;;;;;;;;;;;;4904945;28;19927;-63
2022/10/01 17:46:52;;;;;;;;;;;;;;;;;;4914318;28;19930;-62
2022/10/01 17:52:34;;;;;;;;;;;;;;;;;;4921120;28;20393;-64
2022/10/01 17:55:00;;;;;;;;;;;;;;;;;;4893084;28;19922;-62
2022/10/01 17:57:25;;;;;;;;;;;;;;;;;;4897724;28;20379;-63
2022/10/01 17:59:51;;;;;;;;;;;;;;;;;;4901063;29;19922;-65
2022/10/01 18:02:16;;;;;;;;;;;;;;;;;;4915672;28;19922;-64
2022/10/01 18:04:44;;;;;;;;;;;;;;;;;;4907122;28;19926;-64
2022/10/01 18:07:10;;;;;;;;;;;;;;;;;;4919283;28;20103;-64
2022/10/01 18:09:35;;;;;;;;;;;;;;;;;;4891852;29;20387;-65
2022/10/01 18:12:03;;;;;;;;;;;;;;;;;;4918860;28;19918;-65
2022/10/01 18:14:29;;;;;;;;;;;;;;;;;;4918078;28;20429;-63
2022/10/01 18:16:57;;;;;;;;;;;;;;;;;;4900137;28;19919;-64
2022/10/01 18:19:23;;;;;;;;;;;;;;;;;;4914837;28;20046;-63
2022/10/01 18:21:49;;;;;;;;;;;;;;;;;;4890532;28;19922;-63
2022/10/01 18:24:15;;;;;;;;;;;;;;;;;;4910380;28;20041;-63
2022/10/01 18:26:44;;;;;;;;;;;;;;;;;;4892478;29;19919;-65
2022/10/01 18:29:09;;;;;;;;;;;;;;;;;;4918533;28;19922;-65
2022/10/01 18:31:35;;;;;;;;;;;;;;;;;;4889082;28;19922;-65
2022/10/01 18:34:00;;;;;;;;;;;;;;;;;;4903470;28;19974;-63
2022/10/01 18:36:28;;;;;;;;;;;;;;;;;;4904818;28;19914;-63
2022/10/01 18:38:53;;;;;;;;;;;;;;;;;;4901028;28;19929;-63
2022/10/01 18:41:19;;;;;;;;;;;;;;;;;;4919243;28;19925;-65
2022/10/01 18:43:45;;;;;;;;;;;;;;;;;;4919069;28;19934;-65
2022/10/01 18:46:10;;;;;;;;;;;;;;;;;;4910601;28;20222;-64
2022/10/01 18:48:38;;;;;;;;;;;;;;;;;;4918048;28;19922;-63
2022/10/01 18:51:04;;;;;;;;;;;;;;;;;;4908353;29;20270;-62